createdAt,value
2022-12-11T00:01:12.728Z,8.30
2022-12-11T00:03:39.835Z,8.43
2022-12-11T00:06:08.070Z,8.20
2022-12-11T00:08:35.121Z,7.63
2022-12-11T00:11:02.212Z,7.93
2022-12-11T00:13:29.278Z,7.50
2022-12-11T00:15:56.391Z,8.30
2022-12-11T00:18:23.428Z,7.80
2022-12-11T00:20:50.513Z,7.73
2022-12-11T00:23:17.682Z,7.53
2022-12-11T00:25:45.674Z,8.70
2022-12-11T00:28:13.264Z,8.03
2022-12-11T00:30:41.169Z,8.93
2022-12-11T00:33:08.388Z,8.07
2022-12-11T00:35:38.788Z,7.57
2022-12-11T00:38:05.857Z,7.90
2022-12-11T00:40:36.634Z,8.43
2022-12-11T00:43:03.839Z,7.87
2022-12-11T00:45:30.977Z,8.40
2022-12-11T00:47:58.089Z,8.03
2022-12-11T00:50:25.153Z,8.87
2022-12-11T00:52:52.212Z,8.10
2022-12-11T00:55:19.294Z,7.93
2022-12-11T00:57:47.211Z,6.93
2022-12-11T01:00:14.542Z,7.27
2022-12-11T01:02:41.628Z,7.60
2022-12-11T01:05:10.278Z,7.57
2022-12-11T01:07:37.732Z,7.37
2022-12-11T01:10:23.937Z,7.20
2022-12-11T01:13:04.758Z,7.70
2022-12-11T01:15:35.569Z,7.57
2022-12-11T01:18:05.816Z,7.80
2022-12-11T01:20:32.847Z,8.33
2022-12-11T01:23:00.994Z,8.17
2022-12-11T01:25:28.709Z,7.53
2022-12-11T01:27:56.423Z,8.13
2022-12-11T01:30:24.642Z,7.33
2022-12-11T01:32:51.897Z,7.97
2022-12-11T01:35:19.535Z,8.10
2022-12-11T01:37:46.685Z,7.40
2022-12-11T01:40:18.171Z,7.70
2022-12-11T01:42:45.306Z,7.93
2022-12-11T01:45:18.198Z,7.57
2022-12-11T01:47:45.266Z,7.77
2022-12-11T01:50:12.335Z,8.37
2022-12-11T01:52:40.444Z,7.73
2022-12-11T01:55:09.605Z,7.50
2022-12-11T01:57:41.810Z,8.27
2022-12-11T02:00:09.244Z,7.67
2022-12-11T02:02:36.397Z,7.63
2022-12-11T02:05:04.166Z,7.73
2022-12-11T02:07:33.298Z,7.03
2022-12-11T02:10:00.406Z,7.00
2022-12-11T02:12:32.388Z,7.30
2022-12-11T02:15:18.201Z,6.63
2022-12-11T02:17:54.409Z,6.70
2022-12-11T02:20:21.690Z,7.17
2022-12-11T02:22:48.737Z,7.33
2022-12-11T02:25:31.194Z,6.87
2022-12-11T02:28:16.881Z,7.70
2022-12-11T02:30:46.690Z,6.73
2022-12-11T02:33:13.979Z,7.23
2022-12-11T02:35:42.819Z,6.73
2022-12-11T02:38:13.119Z,7.43
2022-12-11T02:40:41.445Z,6.43
2022-12-11T02:43:10.260Z,7.20
2022-12-11T02:45:38.476Z,6.13
2022-12-11T02:48:06.463Z,6.50
2022-12-11T02:50:34.392Z,6.57
2022-12-11T02:53:03.987Z,7.20
2022-12-11T02:55:32.602Z,6.60
2022-12-11T02:58:13.365Z,6.73
2022-12-11T03:00:40.594Z,6.87
2022-12-11T03:03:07.664Z,6.50
2022-12-11T03:05:34.774Z,6.60
2022-12-11T03:08:02.517Z,6.60
2022-12-11T03:10:29.652Z,6.90
2022-12-11T03:12:58.681Z,6.40
2022-12-11T03:15:36.767Z,6.93
2022-12-11T03:18:15.067Z,6.47
2022-12-11T03:20:44.636Z,6.17
2022-12-11T03:23:14.825Z,6.07
2022-12-11T03:25:53.919Z,6.70
2022-12-11T03:28:24.373Z,5.57
2022-12-11T03:30:52.096Z,6.60
2022-12-11T03:33:24.251Z,6.47
2022-12-11T03:35:56.292Z,6.60
2022-12-11T03:38:31.655Z,6.30
2022-12-11T03:41:00.473Z,7.10
2022-12-11T03:43:28.826Z,6.50
2022-12-11T03:45:56.121Z,6.83
2022-12-11T03:48:24.652Z,6.73
2022-12-11T03:50:51.991Z,6.60
2022-12-11T03:53:19.485Z,6.87
2022-12-11T03:55:46.962Z,6.47
2022-12-11T03:58:14.006Z,6.70
2022-12-11T04:00:41.143Z,6.73
2022-12-11T04:03:14.922Z,7.43
2022-12-11T04:05:51.802Z,7.43
2022-12-11T04:08:20.943Z,7.43
2022-12-11T04:10:48.479Z,6.67
2022-12-11T04:13:15.522Z,6.47
2022-12-11T04:15:42.626Z,7.10
2022-12-11T04:18:29.953Z,6.80
2022-12-11T04:21:15.991Z,5.93
2022-12-11T04:24:01.790Z,5.90
2022-12-11T04:26:28.911Z,5.93
2022-12-11T04:28:55.963Z,6.63
2022-12-11T04:31:23.339Z,5.90
2022-12-11T04:33:50.562Z,6.67
2022-12-11T04:36:17.958Z,6.93
2022-12-11T04:38:45.118Z,6.63
2022-12-11T04:41:13.904Z,6.17
2022-12-11T04:43:41.218Z,6.40
2022-12-11T04:46:18.518Z,6.77
2022-12-11T04:48:46.286Z,6.20
2022-12-11T04:51:13.360Z,5.47
2022-12-11T04:53:40.420Z,6.23
2022-12-11T04:56:11.888Z,6.70
2022-12-11T04:58:39.263Z,6.07
2022-12-11T05:01:13.846Z,6.43
2022-12-11T05:03:41.058Z,6.13
2022-12-11T05:06:08.887Z,5.80
2022-12-11T05:08:36.788Z,6.50
2022-12-11T05:11:05.439Z,6.70
2022-12-11T05:13:32.568Z,6.10
2022-12-11T05:16:00.023Z,7.00
2022-12-11T05:18:27.158Z,6.70
2022-12-11T05:21:05.509Z,7.00
2022-12-11T05:23:33.175Z,6.77
2022-12-11T05:26:01.830Z,7.00
2022-12-11T05:28:30.003Z,6.53
2022-12-11T05:31:00.895Z,6.57
2022-12-11T05:33:28.132Z,6.27
2022-12-11T05:35:55.559Z,6.10
2022-12-11T05:38:22.796Z,5.77
2022-12-11T05:41:02.896Z,5.87
2022-12-11T05:43:30.827Z,5.37
2022-12-11T05:46:05.179Z,6.30
2022-12-11T05:48:32.247Z,4.67
2022-12-11T05:50:59.809Z,4.77
2022-12-11T05:53:27.025Z,5.40
2022-12-11T05:55:54.181Z,5.70
2022-12-11T05:58:21.737Z,5.73
2022-12-11T06:00:49.091Z,5.63
2022-12-11T06:03:16.270Z,5.20
2022-12-11T06:05:43.402Z,5.87
2022-12-11T06:08:10.811Z,4.50
2022-12-11T06:10:38.070Z,4.53
2022-12-11T06:13:05.216Z,4.23
2022-12-11T06:15:33.185Z,4.90
2022-12-11T06:18:00.284Z,4.33
2022-12-11T06:20:27.346Z,4.40
2022-12-11T06:22:54.412Z,4.37
2022-12-11T06:25:21.506Z,4.50
2022-12-11T06:27:48.562Z,5.33
2022-12-11T06:30:16.484Z,4.87
2022-12-11T06:32:43.912Z,4.67
2022-12-11T06:35:11.586Z,4.80
2022-12-11T06:37:40.294Z,4.50
2022-12-11T06:40:07.901Z,4.53
2022-12-11T06:42:35.169Z,4.30
2022-12-11T06:45:02.547Z,4.53
2022-12-11T06:47:30.302Z,4.60
2022-12-11T06:49:57.859Z,4.70
2022-12-11T06:52:25.558Z,4.63
2022-12-11T06:54:52.634Z,4.23
2022-12-11T06:57:19.763Z,4.63
2022-12-11T06:59:46.857Z,4.60
2022-12-11T07:02:14.701Z,4.80
2022-12-11T07:04:42.293Z,5.10
2022-12-11T07:07:09.686Z,4.50
2022-12-11T07:09:38.046Z,4.23
2022-12-11T07:12:05.359Z,4.13
2022-12-11T07:14:32.769Z,4.80
2022-12-11T07:17:00.225Z,4.47
2022-12-11T07:19:27.502Z,4.90
2022-12-11T07:21:54.533Z,4.93
2022-12-11T07:24:22.000Z,4.60
2022-12-11T07:26:49.114Z,5.17
2022-12-11T07:29:16.176Z,4.47
2022-12-11T07:31:43.274Z,4.00
2022-12-11T07:34:12.652Z,4.53
2022-12-11T07:36:39.754Z,3.53
2022-12-11T07:39:07.687Z,4.47
2022-12-11T07:41:34.751Z,4.43
2022-12-11T07:44:01.917Z,4.77
2022-12-11T07:46:30.155Z,5.10
2022-12-11T07:48:57.348Z,4.63
2022-12-11T07:51:27.780Z,4.80
2022-12-11T07:53:56.246Z,4.40
2022-12-11T07:56:23.346Z,6.27
2022-12-11T07:58:50.463Z,5.47
2022-12-11T08:01:21.610Z,4.70
2022-12-11T08:03:49.075Z,4.40
2022-12-11T08:06:17.614Z,4.83
2022-12-11T08:08:44.723Z,4.97
2022-12-11T08:11:13.271Z,4.57
2022-12-11T08:13:40.806Z,4.33
2022-12-11T08:16:09.169Z,4.60
2022-12-11T08:18:37.181Z,4.07
2022-12-11T08:21:08.348Z,4.83
2022-12-11T08:23:35.595Z,4.30
2022-12-11T08:26:04.128Z,4.50
2022-12-11T08:28:31.311Z,4.17
2022-12-11T08:30:58.733Z,4.13
2022-12-11T08:33:26.079Z,4.23
2022-12-11T08:35:53.123Z,4.27
2022-12-11T08:38:25.156Z,4.73
2022-12-11T08:40:52.709Z,4.23
2022-12-11T08:43:19.747Z,4.83
2022-12-11T08:45:47.187Z,4.77
2022-12-11T08:48:14.505Z,4.90
2022-12-11T08:50:41.595Z,4.43
2022-12-11T08:53:08.669Z,4.47
2022-12-11T08:55:35.732Z,4.13
2022-12-11T08:58:03.226Z,4.77
2022-12-11T09:00:30.299Z,4.47
2022-12-11T09:02:57.431Z,4.73
2022-12-11T09:05:24.548Z,5.40
2022-12-11T09:07:51.677Z,6.03
2022-12-11T09:10:19.021Z,4.87
2022-12-11T09:12:46.075Z,5.17
2022-12-11T09:15:13.467Z,4.83
2022-12-11T09:17:40.822Z,4.87
2022-12-11T09:20:08.162Z,5.67
2022-12-11T09:22:35.207Z,4.93
2022-12-11T09:25:02.454Z,4.97
2022-12-11T09:27:29.484Z,4.33
2022-12-11T09:29:56.562Z,4.63
2022-12-11T09:32:23.596Z,4.10
2022-12-11T09:34:51.782Z,3.87
2022-12-11T09:37:18.890Z,4.00
2022-12-11T09:39:45.982Z,3.67
2022-12-11T09:42:13.011Z,4.47
2022-12-11T09:44:49.371Z,4.60
2022-12-11T09:47:31.566Z,4.20
2022-12-11T09:50:04.494Z,4.13
2022-12-11T09:52:50.272Z,4.33
2022-12-11T09:55:19.839Z,4.67
2022-12-11T09:57:49.706Z,4.70
2022-12-11T10:00:21.686Z,5.40
2022-12-11T10:03:07.222Z,4.70
2022-12-11T10:05:38.973Z,4.60
2022-12-11T10:08:06.048Z,4.50
2022-12-11T10:10:43.993Z,5.27
2022-12-11T10:13:22.864Z,5.20
2022-12-11T10:16:09.270Z,5.10
2022-12-11T10:18:36.857Z,5.47
2022-12-11T10:21:04.133Z,5.83
2022-12-11T10:23:35.647Z,6.20
2022-12-11T10:26:23.012Z,5.70
2022-12-11T10:28:50.100Z,5.67
2022-12-11T10:31:17.260Z,4.97
2022-12-11T10:33:44.415Z,5.30
2022-12-11T10:36:13.334Z,4.67
2022-12-11T10:38:45.346Z,6.00
2022-12-11T10:41:14.375Z,5.37
2022-12-11T10:43:43.276Z,5.30
2022-12-11T10:46:19.319Z,4.90
2022-12-11T10:48:50.450Z,4.33
2022-12-11T10:51:18.222Z,4.03
2022-12-11T10:53:50.063Z,4.73
2022-12-11T10:56:25.268Z,4.50
2022-12-11T10:58:52.765Z,3.90
2022-12-11T11:01:21.963Z,4.13
2022-12-11T11:04:18.185Z,4.50
2022-12-11T11:06:45.339Z,4.07
2022-12-11T11:09:28.793Z,5.50
2022-12-11T11:11:55.872Z,4.27
2022-12-11T11:14:23.230Z,4.87
2022-12-11T11:16:52.390Z,4.17
2022-12-11T11:19:22.073Z,5.33
2022-12-11T11:21:53.889Z,5.10
2022-12-11T11:24:34.434Z,5.33
2022-12-11T11:27:13.239Z,4.13
2022-12-11T11:29:42.581Z,4.97
2022-12-11T11:32:21.188Z,4.40
2022-12-11T11:34:48.242Z,4.13
2022-12-11T11:37:26.815Z,4.50
2022-12-11T11:39:55.936Z,5.33
2022-12-11T11:42:30.105Z,4.77
2022-12-11T11:45:20.494Z,5.40
2022-12-11T11:47:59.778Z,5.70
2022-12-11T11:50:29.068Z,5.37
2022-12-11T11:53:03.024Z,5.27
2022-12-11T11:55:32.840Z,5.80
2022-12-11T11:58:10.896Z,5.07
2022-12-11T12:00:38.075Z,5.23
2022-12-11T12:03:10.224Z,5.03
2022-12-11T12:05:40.146Z,4.97
2022-12-11T12:08:10.221Z,4.80
2022-12-11T12:10:40.117Z,4.87
2022-12-11T12:13:30.159Z,5.20
2022-12-11T12:15:58.723Z,4.93
2022-12-11T12:18:25.760Z,5.20
2022-12-11T12:20:52.804Z,5.10
2022-12-11T12:23:39.673Z,5.73
2022-12-11T12:26:21.386Z,5.40
2022-12-11T12:28:51.702Z,5.17
2022-12-11T12:31:27.868Z,4.90
2022-12-11T12:33:55.005Z,4.57
2022-12-11T12:36:25.117Z,4.27
2022-12-11T12:39:07.590Z,5.40
2022-12-11T12:41:37.494Z,4.77
2022-12-11T12:44:15.348Z,4.33
2022-12-11T12:46:58.137Z,4.57
2022-12-11T12:49:27.967Z,4.70
2022-12-11T12:51:55.857Z,4.43
2022-12-11T12:54:23.287Z,4.93
2022-12-11T12:56:50.425Z,4.60
2022-12-11T12:59:24.856Z,4.87
2022-12-11T13:01:52.585Z,4.87
2022-12-11T13:04:55.720Z,5.00
2022-12-11T13:07:28.357Z,5.03
2022-12-11T13:10:21.800Z,5.70
2022-12-11T13:12:48.846Z,4.93
2022-12-11T13:15:24.963Z,4.63
2022-12-11T13:17:52.057Z,4.73
2022-12-11T13:20:26.922Z,4.60
2022-12-11T13:23:09.922Z,5.37
2022-12-11T13:25:51.390Z,4.63
2022-12-11T13:28:33.892Z,4.97
2022-12-11T13:31:07.350Z,5.00
2022-12-11T13:33:39.126Z,5.00
2022-12-11T13:36:26.514Z,4.80
2022-12-11T13:38:59.228Z,4.40
2022-12-11T13:41:26.478Z,5.03
2022-12-11T13:43:53.891Z,4.83
2022-12-11T13:46:26.211Z,5.20
2022-12-11T13:48:57.040Z,4.70
2022-12-11T13:51:25.762Z,4.50
2022-12-11T13:54:09.814Z,5.00
2022-12-11T13:56:39.877Z,4.47
2022-12-11T13:59:19.126Z,5.00
2022-12-11T14:01:46.229Z,5.23
2022-12-11T14:04:16.341Z,5.37
2022-12-11T14:06:43.516Z,4.77
2022-12-11T14:09:16.722Z,5.50
2022-12-11T14:11:44.066Z,4.80
2022-12-11T14:14:40.901Z,5.80
2022-12-11T14:17:12.232Z,5.67
2022-12-11T14:19:39.949Z,5.30
2022-12-11T14:22:07.924Z,5.97
2022-12-11T14:24:35.033Z,5.40
2022-12-11T14:27:04.664Z,5.57
2022-12-11T14:29:33.002Z,5.13
2022-12-11T14:32:02.679Z,5.33
2022-12-11T14:34:33.301Z,5.97
2022-12-11T14:37:01.850Z,5.80
2022-12-11T14:39:36.068Z,5.57
2022-12-11T14:42:18.331Z,6.10
2022-12-11T14:44:50.673Z,6.13
2022-12-11T14:47:20.985Z,6.60
2022-12-11T14:49:48.006Z,5.80
2022-12-11T14:52:17.127Z,5.67
2022-12-11T14:54:47.113Z,6.53
2022-12-11T14:57:19.898Z,6.33
2022-12-11T14:59:48.259Z,5.93
2022-12-11T15:02:24.551Z,5.97
2022-12-11T15:05:12.318Z,5.63
2022-12-11T15:07:40.001Z,4.70
2022-12-11T15:10:07.229Z,5.33
2022-12-11T15:12:34.890Z,5.60
2022-12-11T15:15:04.290Z,5.47
2022-12-11T15:17:32.928Z,5.60
2022-12-11T15:20:23.028Z,5.10
2022-12-11T15:22:50.195Z,6.00
2022-12-11T15:25:22.186Z,6.07
2022-12-11T15:27:53.546Z,5.80
2022-12-11T15:30:27.013Z,5.67
2022-12-11T15:33:06.141Z,5.03
2022-12-11T15:35:33.267Z,4.93
2022-12-11T15:38:00.415Z,5.20
2022-12-11T15:40:27.735Z,4.90
2022-12-11T15:42:55.214Z,5.20
2022-12-11T15:45:23.596Z,5.47
2022-12-11T15:47:51.077Z,5.47
2022-12-11T15:50:25.831Z,5.27
2022-12-11T15:52:54.137Z,5.50
2022-12-11T15:55:22.307Z,5.93
2022-12-11T15:57:59.928Z,6.33
2022-12-11T16:00:30.427Z,5.37
2022-12-11T16:02:58.485Z,5.67
2022-12-11T16:05:26.276Z,6.23
2022-12-11T16:07:59.395Z,5.57
2022-12-11T16:10:27.200Z,6.00
2022-12-11T16:12:59.299Z,5.60
2022-12-11T16:15:27.600Z,6.60
2022-12-11T16:18:05.099Z,5.80
2022-12-11T16:20:32.305Z,6.03
2022-12-11T16:23:00.427Z,6.17
2022-12-11T16:25:27.980Z,6.47
2022-12-11T16:27:58.737Z,5.87
2022-12-11T16:30:25.991Z,6.00
2022-12-11T16:32:53.078Z,6.20
2022-12-11T16:35:20.735Z,5.67
2022-12-11T16:37:51.533Z,6.03
2022-12-11T16:40:18.630Z,5.97
2022-12-11T16:42:46.124Z,5.67
2022-12-11T16:45:14.741Z,5.40
2022-12-11T16:47:42.199Z,5.93
2022-12-11T16:50:09.596Z,5.93
2022-12-11T16:52:36.659Z,5.43
2022-12-11T16:55:04.147Z,5.70
2022-12-11T16:57:31.242Z,5.60
2022-12-11T16:59:58.362Z,6.10
2022-12-11T17:02:25.578Z,6.33
2022-12-11T17:04:54.109Z,6.10
2022-12-11T17:07:21.391Z,6.23
2022-12-11T17:09:48.456Z,6.00
2022-12-11T17:12:15.523Z,5.70
2022-12-11T17:14:42.640Z,5.73
2022-12-11T17:17:09.743Z,5.67
2022-12-11T17:19:36.804Z,6.13
2022-12-11T17:22:04.519Z,5.87
2022-12-11T17:24:31.609Z,6.10
2022-12-11T17:26:59.623Z,5.73
2022-12-11T17:29:26.727Z,7.23
2022-12-11T17:31:53.783Z,6.43
2022-12-11T17:34:20.863Z,6.83
2022-12-11T17:36:48.255Z,6.57
2022-12-11T17:39:15.359Z,6.80
2022-12-11T17:41:42.469Z,6.47
2022-12-11T17:44:10.164Z,6.40
2022-12-11T17:46:37.233Z,6.77
2022-12-11T17:49:05.439Z,6.70
2022-12-11T17:51:32.552Z,5.43
2022-12-11T17:53:59.634Z,6.77
2022-12-11T17:56:26.887Z,6.47
2022-12-11T17:58:54.034Z,7.13
2022-12-11T18:01:21.250Z,6.50
2022-12-11T18:03:48.500Z,6.23
2022-12-11T18:06:16.492Z,6.33
2022-12-11T18:08:44.374Z,6.57
2022-12-11T18:11:13.392Z,6.33
2022-12-11T18:13:40.509Z,5.40
2022-12-11T18:16:09.088Z,6.17
2022-12-11T18:18:36.313Z,5.60
2022-12-11T18:21:03.459Z,6.57
2022-12-11T18:23:30.546Z,6.33
2022-12-11T18:25:57.614Z,6.53
2022-12-11T18:28:24.718Z,9.00
2022-12-11T18:30:51.874Z,12.63
2022-12-11T18:33:19.074Z,13.50
2022-12-11T18:35:46.324Z,9.70
2022-12-11T18:38:13.365Z,6.53
2022-12-11T18:40:40.469Z,7.87
2022-12-11T18:43:07.527Z,6.93
2022-12-11T18:45:35.418Z,7.43
2022-12-11T18:48:02.458Z,7.43
2022-12-11T18:50:29.540Z,7.30
2022-12-11T18:52:56.988Z,6.90
2022-12-11T18:55:24.196Z,6.07
2022-12-11T18:57:51.404Z,7.20
2022-12-11T19:00:18.819Z,6.13
2022-12-11T19:02:46.361Z,7.23
2022-12-11T19:05:13.881Z,6.33
2022-12-11T19:07:41.212Z,7.40
2022-12-11T19:10:08.477Z,6.93
2022-12-11T19:12:36.669Z,7.53
2022-12-11T19:15:04.270Z,6.50
2022-12-11T19:17:31.319Z,6.90
2022-12-11T19:19:58.406Z,6.70
2022-12-11T19:22:25.542Z,7.07
2022-12-11T19:24:52.678Z,6.30
2022-12-11T19:27:19.765Z,7.03
2022-12-11T19:29:46.952Z,7.43
2022-12-11T19:32:14.023Z,6.20
2022-12-11T19:34:41.255Z,6.23
2022-12-11T19:37:08.373Z,6.10
2022-12-11T19:39:35.835Z,6.57
2022-12-11T19:42:02.949Z,5.77
2022-12-11T19:44:30.040Z,5.70
2022-12-11T19:46:57.205Z,6.07
2022-12-11T19:49:24.320Z,6.10
2022-12-11T19:51:51.399Z,6.43
2022-12-11T19:54:18.825Z,6.00
2022-12-11T19:56:46.068Z,6.77
2022-12-11T19:59:15.688Z,5.70
2022-12-11T20:01:43.008Z,6.50
2022-12-11T20:04:11.458Z,6.73
2022-12-11T20:06:39.649Z,5.50
2022-12-11T20:09:10.609Z,6.07
2022-12-11T20:11:38.103Z,7.43
2022-12-11T20:14:05.540Z,5.83
2022-12-11T20:17:08.804Z,6.00
2022-12-11T20:19:22.535Z,5.20
2022-12-11T20:21:49.668Z,6.03
2022-12-11T20:24:16.771Z,5.70
2022-12-11T20:26:44.027Z,6.10
2022-12-11T20:29:12.753Z,6.20
2022-12-11T20:31:40.201Z,6.10
2022-12-11T20:34:07.903Z,6.13
2022-12-11T20:36:35.653Z,5.83
2022-12-11T20:39:02.754Z,6.00
2022-12-11T20:41:29.871Z,6.13
2022-12-11T20:43:57.132Z,6.60
2022-12-11T20:46:25.360Z,6.50
2022-12-11T20:48:52.818Z,6.27
2022-12-11T20:51:25.792Z,6.10
2022-12-11T20:53:58.740Z,5.80
2022-12-11T20:56:28.270Z,5.93
2022-12-11T20:58:55.919Z,6.13
2022-12-11T21:01:24.640Z,6.70
2022-12-11T21:03:53.461Z,6.50
2022-12-11T21:06:21.695Z,6.27
2022-12-11T21:08:49.094Z,6.20
2022-12-11T21:11:16.222Z,6.00
2022-12-11T21:13:43.321Z,6.17
2022-12-11T21:16:10.768Z,6.20
2022-12-11T21:18:38.190Z,6.43
2022-12-11T21:21:05.397Z,6.73
2022-12-11T21:23:32.480Z,6.50
2022-12-11T21:25:59.767Z,6.37
2022-12-11T21:28:30.570Z,6.40
2022-12-11T21:31:04.940Z,6.23
2022-12-11T21:33:32.030Z,6.87
2022-12-11T21:35:59.481Z,6.53
2022-12-11T21:38:27.029Z,6.47
2022-12-11T21:40:54.226Z,6.70
2022-12-11T21:43:21.553Z,6.60
2022-12-11T21:46:04.795Z,6.73
2022-12-11T21:48:32.345Z,6.57
2022-12-11T21:51:06.471Z,6.67
2022-12-11T21:53:33.585Z,6.70
2022-12-11T21:56:00.663Z,6.73
2022-12-11T21:58:27.799Z,5.73
2022-12-11T22:00:54.866Z,6.40
2022-12-11T22:03:21.958Z,5.67
2022-12-11T22:05:48.975Z,6.37
2022-12-11T22:08:16.060Z,6.10
2022-12-11T22:10:43.164Z,5.97
2022-12-11T22:13:10.199Z,6.27
2022-12-11T22:15:37.305Z,6.57
2022-12-11T22:18:04.448Z,6.50
2022-12-11T22:20:31.554Z,6.03
2022-12-11T22:22:58.644Z,5.77
2022-12-11T22:25:25.825Z,6.73
2022-12-11T22:27:52.887Z,6.23
2022-12-11T22:30:19.954Z,6.00
2022-12-11T22:32:47.016Z,6.57
2022-12-11T22:35:14.469Z,6.67
2022-12-11T22:37:41.620Z,6.30
2022-12-11T22:40:09.063Z,5.93
2022-12-11T22:42:36.112Z,6.17
2022-12-11T22:45:03.409Z,5.70
2022-12-11T22:47:30.483Z,6.43
2022-12-11T22:49:57.537Z,6.60
2022-12-11T22:52:24.630Z,6.17
2022-12-11T22:54:51.652Z,6.00
2022-12-11T22:57:18.704Z,6.43
2022-12-11T22:59:45.996Z,6.13
2022-12-11T23:02:13.095Z,7.20
2022-12-11T23:04:40.167Z,6.23
2022-12-11T23:07:07.222Z,6.57
2022-12-11T23:09:34.298Z,6.67
2022-12-11T23:12:01.595Z,6.90
2022-12-11T23:14:28.674Z,6.50
2022-12-11T23:16:55.809Z,6.07
2022-12-11T23:19:25.567Z,6.23
2022-12-11T23:21:52.849Z,6.30
2022-12-11T23:24:19.927Z,6.33
2022-12-11T23:26:48.026Z,5.97
2022-12-11T23:29:15.206Z,6.00
2022-12-11T23:31:42.235Z,6.27
2022-12-11T23:34:09.295Z,6.80
2022-12-11T23:36:36.359Z,7.33
2022-12-11T23:39:03.767Z,6.53
2022-12-11T23:41:31.362Z,6.87
2022-12-11T23:43:58.433Z,6.43
2022-12-11T23:46:25.934Z,6.23
2022-12-11T23:48:53.365Z,6.33
2022-12-11T23:51:21.434Z,6.63
2022-12-11T23:53:48.895Z,6.80
2022-12-11T23:56:20.522Z,5.83
2022-12-11T23:58:47.638Z,6.37
